sensor_id;sensor_type;location;lat;lon;timestamp;temperature;humidity
40023;DHT22;25713;-35.352;149.036;2022-08-21T00:02:27;10.40;87.20
40023;DHT22;25713;-35.352;149.036;2022-08-21T00:04:56;10.40;87.40
40023;DHT22;25713;-35.352;149.036;2022-08-21T00:07:26;10.30;88.30
40023;DHT22;25713;-35.352;149.036;2022-08-21T00:09:57;10.40;88.20
40023;DHT22;25713;-35.352;149.036;2022-08-21T00:12:27;10.50;87.60
40023;DHT22;25713;-35.352;149.036;2022-08-21T00:14:57;10.60;87.60
40023;DHT22;25713;-35.352;149.036;2022-08-21T00:17:26;10.60;87.30
40023;DHT22;25713;-35.352;149.036;2022-08-21T00:19:56;10.60;87.60
40023;DHT22;25713;-35.352;149.036;2022-08-21T00:22:25;10.50;87.10
40023;DHT22;25713;-35.352;149.036;2022-08-21T00:24:54;10.50;88.10
40023;DHT22;25713;-35.352;149.036;2022-08-21T00:27:26;10.60;87.90
40023;DHT22;25713;-35.352;149.036;2022-08-21T00:29:55;10.60;88.10
40023;DHT22;25713;-35.352;149.036;2022-08-21T00:32:27;10.70;87.90
40023;DHT22;25713;-35.352;149.036;2022-08-21T00:34:57;10.80;88.10
40023;DHT22;25713;-35.352;149.036;2022-08-21T00:37:27;10.80;87.40
40023;DHT22;25713;-35.352;149.036;2022-08-21T00:39:56;10.80;87.60
40023;DHT22;25713;-35.352;149.036;2022-08-21T00:42:30;10.90;87.60
40023;DHT22;25713;-35.352;149.036;2022-08-21T00:45:01;10.90;87.70
40023;DHT22;25713;-35.352;149.036;2022-08-21T00:47:30;11.00;87.10
40023;DHT22;25713;-35.352;149.036;2022-08-21T00:50:01;11.10;86.80
40023;DHT22;25713;-35.352;149.036;2022-08-21T00:52:33;11.00;86.70
40023;DHT22;25713;-35.352;149.036;2022-08-21T00:55:04;10.80;88.50
40023;DHT22;25713;-35.352;149.036;2022-08-21T00:57:40;10.90;88.60
40023;DHT22;25713;-35.352;149.036;2022-08-21T01:00:13;11.00;88.60
40023;DHT22;25713;-35.352;149.036;2022-08-21T01:02:42;11.10;87.70
40023;DHT22;25713;-35.352;149.036;2022-08-21T01:05:13;11.20;86.80
40023;DHT22;25713;-35.352;149.036;2022-08-21T01:07:43;11.20;87.10
40023;DHT22;25713;-35.352;149.036;2022-08-21T01:10:14;11.10;86.90
40023;DHT22;25713;-35.352;149.036;2022-08-21T01:12:46;11.10;87.60
40023;DHT22;25713;-35.352;149.036;2022-08-21T01:15:18;11.20;88.20
40023;DHT22;25713;-35.352;149.036;2022-08-21T01:17:49;11.20;87.90
40023;DHT22;25713;-35.352;149.036;2022-08-21T01:20:19;11.20;87.90
40023;DHT22;25713;-35.352;149.036;2022-08-21T01:22:53;11.30;88.00
40023;DHT22;25713;-35.352;149.036;2022-08-21T01:25:23;11.30;87.30
40023;DHT22;25713;-35.352;149.036;2022-08-21T01:27:53;11.40;88.90
40023;DHT22;25713;-35.352;149.036;2022-08-21T01:30:24;11.30;88.80
40023;DHT22;25713;-35.352;149.036;2022-08-21T01:32:55;11.40;88.70
40023;DHT22;25713;-35.352;149.036;2022-08-21T01:35:25;11.40;88.40
40023;DHT22;25713;-35.352;149.036;2022-08-21T01:37:57;11.50;90.00
40023;DHT22;25713;-35.352;149.036;2022-08-21T01:40:27;11.50;89.00
40023;DHT22;25713;-35.352;149.036;2022-08-21T01:43:01;11.50;89.00
40023;DHT22;25713;-35.352;149.036;2022-08-21T01:45:31;11.70;89.00
40023;DHT22;25713;-35.352;149.036;2022-08-21T01:48:00;11.70;88.40
40023;DHT22;25713;-35.352;149.036;2022-08-21T01:50:31;11.70;88.10
40023;DHT22;25713;-35.352;149.036;2022-08-21T01:53:03;11.70;87.50
40023;DHT22;25713;-35.352;149.036;2022-08-21T01:55:32;11.80;87.50
40023;DHT22;25713;-35.352;149.036;2022-08-21T01:58:02;11.80;88.10
40023;DHT22;25713;-35.352;149.036;2022-08-21T02:00:32;11.80;88.10
40023;DHT22;25713;-35.352;149.036;2022-08-21T02:03:02;11.90;88.70
40023;DHT22;25713;-35.352;149.036;2022-08-21T02:05:31;11.90;88.90
40023;DHT22;25713;-35.352;149.036;2022-08-21T02:08:03;11.90;89.50
40023;DHT22;25713;-35.352;149.036;2022-08-21T02:10:35;12.00;88.40
40023;DHT22;25713;-35.352;149.036;2022-08-21T02:13:05;12.00;88.80
40023;DHT22;25713;-35.352;149.036;2022-08-21T02:15:36;12.10;88.30
40023;DHT22;25713;-35.352;149.036;2022-08-21T02:18:06;12.10;85.90
40023;DHT22;25713;-35.352;149.036;2022-08-21T02:20:39;12.10;86.00
40023;DHT22;25713;-35.352;149.036;2022-08-21T02:23:12;12.20;86.90
40023;DHT22;25713;-35.352;149.036;2022-08-21T02:25:43;12.30;87.40
40023;DHT22;25713;-35.352;149.036;2022-08-21T02:28:14;12.20;87.10
40023;DHT22;25713;-35.352;149.036;2022-08-21T02:30:46;12.30;86.80
40023;DHT22;25713;-35.352;149.036;2022-08-21T02:33:17;12.30;86.20
40023;DHT22;25713;-35.352;149.036;2022-08-21T02:35:48;12.40;86.60
40023;DHT22;25713;-35.352;149.036;2022-08-21T02:38:22;12.40;86.00
40023;DHT22;25713;-35.352;149.036;2022-08-21T02:40:53;12.30;83.50
40023;DHT22;25713;-35.352;149.036;2022-08-21T02:43:25;12.30;84.00
40023;DHT22;25713;-35.352;149.036;2022-08-21T02:45:56;12.30;85.30
40023;DHT22;25713;-35.352;149.036;2022-08-21T02:48:28;12.40;83.00
40023;DHT22;25713;-35.352;149.036;2022-08-21T02:51:01;12.40;81.80
40023;DHT22;25713;-35.352;149.036;2022-08-21T02:53:34;12.40;82.70
40023;DHT22;25713;-35.352;149.036;2022-08-21T02:56:05;12.40;83.10
40023;DHT22;25713;-35.352;149.036;2022-08-21T02:58:37;12.50;81.00
40023;DHT22;25713;-35.352;149.036;2022-08-21T03:01:07;12.60;81.70
40023;DHT22;25713;-35.352;149.036;2022-08-21T03:03:39;12.60;81.90
40023;DHT22;25713;-35.352;149.036;2022-08-21T03:06:10;12.60;80.20
40023;DHT22;25713;-35.352;149.036;2022-08-21T03:08:42;12.70;83.00
40023;DHT22;25713;-35.352;149.036;2022-08-21T03:11:13;12.80;81.90
40023;DHT22;25713;-35.352;149.036;2022-08-21T03:13:44;12.70;80.30
40023;DHT22;25713;-35.352;149.036;2022-08-21T03:16:13;12.80;80.20
40023;DHT22;25713;-35.352;149.036;2022-08-21T03:18:43;12.80;78.60
40023;DHT22;25713;-35.352;149.036;2022-08-21T03:21:13;12.70;77.60
40023;DHT22;25713;-35.352;149.036;2022-08-21T03:23:46;12.60;75.30
40023;DHT22;25713;-35.352;149.036;2022-08-21T03:26:16;12.60;75.50
40023;DHT22;25713;-35.352;149.036;2022-08-21T03:28:46;12.50;77.50
40023;DHT22;25713;-35.352;149.036;2022-08-21T03:31:17;12.50;78.30
40023;DHT22;25713;-35.352;149.036;2022-08-21T03:33:47;12.50;77.80
40023;DHT22;25713;-35.352;149.036;2022-08-21T03:36:17;12.50;77.30
40023;DHT22;25713;-35.352;149.036;2022-08-21T03:38:48;12.50;77.10
40023;DHT22;25713;-35.352;149.036;2022-08-21T03:41:19;12.40;75.10
40023;DHT22;25713;-35.352;149.036;2022-08-21T03:43:48;12.40;74.00
40023;DHT22;25713;-35.352;149.036;2022-08-21T03:46:18;12.50;77.30
40023;DHT22;25713;-35.352;149.036;2022-08-21T03:48:49;12.50;75.30
40023;DHT22;25713;-35.352;149.036;2022-08-21T03:51:19;12.50;73.20
40023;DHT22;25713;-35.352;149.036;2022-08-21T03:53:51;12.50;77.00
40023;DHT22;25713;-35.352;149.036;2022-08-21T03:56:21;12.60;76.90
40023;DHT22;25713;-35.352;149.036;2022-08-21T03:58:51;12.60;76.50
40023;DHT22;25713;-35.352;149.036;2022-08-21T04:01:21;12.50;71.80
40023;DHT22;25713;-35.352;149.036;2022-08-21T04:03:51;12.50;72.50
40023;DHT22;25713;-35.352;149.036;2022-08-21T04:06:21;12.50;72.00
40023;DHT22;25713;-35.352;149.036;2022-08-21T04:08:54;12.60;73.80
40023;DHT22;25713;-35.352;149.036;2022-08-21T04:11:24;12.70;73.40
40023;DHT22;25713;-35.352;149.036;2022-08-21T04:13:54;12.60;73.10
40023;DHT22;25713;-35.352;149.036;2022-08-21T04:16:24;12.60;73.30
40023;DHT22;25713;-35.352;149.036;2022-08-21T04:18:53;12.70;76.00
40023;DHT22;25713;-35.352;149.036;2022-08-21T04:21:24;12.70;72.50
40023;DHT22;25713;-35.352;149.036;2022-08-21T04:23:58;12.70;74.80
40023;DHT22;25713;-35.352;149.036;2022-08-21T04:26:28;12.60;74.20
40023;DHT22;25713;-35.352;149.036;2022-08-21T04:28:57;12.70;73.90
40023;DHT22;25713;-35.352;149.036;2022-08-21T04:31:29;12.70;74.50
40023;DHT22;25713;-35.352;149.036;2022-08-21T04:33:59;12.70;73.40
40023;DHT22;25713;-35.352;149.036;2022-08-21T04:36:29;12.60;72.00
40023;DHT22;25713;-35.352;149.036;2022-08-21T04:39:01;12.60;74.60
40023;DHT22;25713;-35.352;149.036;2022-08-21T04:41:31;12.60;72.90
40023;DHT22;25713;-35.352;149.036;2022-08-21T04:44:01;12.70;74.10
40023;DHT22;25713;-35.352;149.036;2022-08-21T04:46:31;12.70;74.60
40023;DHT22;25713;-35.352;149.036;2022-08-21T04:49:01;12.70;73.10
40023;DHT22;25713;-35.352;149.036;2022-08-21T04:51:33;12.70;73.70
40023;DHT22;25713;-35.352;149.036;2022-08-21T04:54:09;12.70;72.90
40023;DHT22;25713;-35.352;149.036;2022-08-21T04:56:42;12.60;71.80
40023;DHT22;25713;-35.352;149.036;2022-08-21T04:59:16;12.70;71.80
40023;DHT22;25713;-35.352;149.036;2022-08-21T05:01:45;12.60;72.50
40023;DHT22;25713;-35.352;149.036;2022-08-21T05:04:17;12.70;74.90
40023;DHT22;25713;-35.352;149.036;2022-08-21T05:06:48;12.70;71.80
40023;DHT22;25713;-35.352;149.036;2022-08-21T05:09:22;12.70;71.70
40023;DHT22;25713;-35.352;149.036;2022-08-21T05:11:52;12.70;74.00
40023;DHT22;25713;-35.352;149.036;2022-08-21T05:14:22;12.70;72.80
40023;DHT22;25713;-35.352;149.036;2022-08-21T05:16:52;12.70;72.70
40023;DHT22;25713;-35.352;149.036;2022-08-21T05:19:22;12.70;72.10
40023;DHT22;25713;-35.352;149.036;2022-08-21T05:21:52;12.60;70.90
40023;DHT22;25713;-35.352;149.036;2022-08-21T05:24:24;12.60;72.10
40023;DHT22;25713;-35.352;149.036;2022-08-21T05:26:54;12.70;73.90
40023;DHT22;25713;-35.352;149.036;2022-08-21T05:29:24;12.60;73.70
40023;DHT22;25713;-35.352;149.036;2022-08-21T05:31:54;12.70;75.50
40023;DHT22;25713;-35.352;149.036;2022-08-21T05:34:24;12.80;73.70
40023;DHT22;25713;-35.352;149.036;2022-08-21T05:36:54;12.80;71.90
40023;DHT22;25713;-35.352;149.036;2022-08-21T05:39:26;12.70;72.90
40023;DHT22;25713;-35.352;149.036;2022-08-21T05:41:56;12.60;73.00
40023;DHT22;25713;-35.352;149.036;2022-08-21T05:44:27;12.60;71.40
40023;DHT22;25713;-35.352;149.036;2022-08-21T05:47:01;12.60;72.40
40023;DHT22;25713;-35.352;149.036;2022-08-21T05:49:32;12.60;73.60
40023;DHT22;25713;-35.352;149.036;2022-08-21T05:52:02;12.60;74.90
40023;DHT22;25713;-35.352;149.036;2022-08-21T05:54:37;12.70;77.00
40023;DHT22;25713;-35.352;149.036;2022-08-21T05:57:08;12.70;71.20
40023;DHT22;25713;-35.352;149.036;2022-08-21T05:59:38;12.70;74.00
40023;DHT22;25713;-35.352;149.036;2022-08-21T06:02:08;12.60;74.40
40023;DHT22;25713;-35.352;149.036;2022-08-21T06:04:38;12.70;74.00
40023;DHT22;25713;-35.352;149.036;2022-08-21T06:07:08;12.60;74.00
40023;DHT22;25713;-35.352;149.036;2022-08-21T06:09:40;12.70;76.40
40023;DHT22;25713;-35.352;149.036;2022-08-21T06:12:11;12.60;74.10
40023;DHT22;25713;-35.352;149.036;2022-08-21T06:14:42;12.50;74.10
40023;DHT22;25713;-35.352;149.036;2022-08-21T06:17:13;12.50;74.90
40023;DHT22;25713;-35.352;149.036;2022-08-21T06:19:42;12.50;74.60
40023;DHT22;25713;-35.352;149.036;2022-08-21T06:22:12;12.50;75.70
40023;DHT22;25713;-35.352;149.036;2022-08-21T06:24:44;12.50;74.90
40023;DHT22;25713;-35.352;149.036;2022-08-21T06:27:15;12.40;75.20
40023;DHT22;25713;-35.352;149.036;2022-08-21T06:29:44;12.40;75.40
40023;DHT22;25713;-35.352;149.036;2022-08-21T06:32:14;12.40;76.90
40023;DHT22;25713;-35.352;149.036;2022-08-21T06:34:44;12.40;76.80
40023;DHT22;25713;-35.352;149.036;2022-08-21T06:37:14;12.30;75.40
40023;DHT22;25713;-35.352;149.036;2022-08-21T06:39:46;12.30;76.60
40023;DHT22;25713;-35.352;149.036;2022-08-21T06:42:17;12.30;76.20
40023;DHT22;25713;-35.352;149.036;2022-08-21T06:44:47;12.30;77.70
40023;DHT22;25713;-35.352;149.036;2022-08-21T06:47:17;12.20;78.00
40023;DHT22;25713;-35.352;149.036;2022-08-21T06:49:47;12.20;78.20
40023;DHT22;25713;-35.352;149.036;2022-08-21T06:52:17;12.20;78.90
40023;DHT22;25713;-35.352;149.036;2022-08-21T06:54:49;12.10;76.90
40023;DHT22;25713;-35.352;149.036;2022-08-21T06:57:19;12.20;77.20
40023;DHT22;25713;-35.352;149.036;2022-08-21T06:59:49;12.20;76.60
40023;DHT22;25713;-35.352;149.036;2022-08-21T07:02:19;12.20;78.60
40023;DHT22;25713;-35.352;149.036;2022-08-21T07:04:49;12.20;78.80
40023;DHT22;25713;-35.352;149.036;2022-08-21T07:07:19;12.10;78.20
40023;DHT22;25713;-35.352;149.036;2022-08-21T07:09:51;12.10;78.00
40023;DHT22;25713;-35.352;149.036;2022-08-21T07:12:21;12.10;79.80
40023;DHT22;25713;-35.352;149.036;2022-08-21T07:14:51;12.10;79.40
40023;DHT22;25713;-35.352;149.036;2022-08-21T07:17:22;12.10;78.20
40023;DHT22;25713;-35.352;149.036;2022-08-21T07:19:51;12.00;79.30
40023;DHT22;25713;-35.352;149.036;2022-08-21T07:22:21;12.10;79.40
40023;DHT22;25713;-35.352;149.036;2022-08-21T07:24:53;12.00;80.90
40023;DHT22;25713;-35.352;149.036;2022-08-21T07:27:23;12.00;80.10
40023;DHT22;25713;-35.352;149.036;2022-08-21T07:29:53;12.10;79.70
40023;DHT22;25713;-35.352;149.036;2022-08-21T07:32:23;12.00;79.10
40023;DHT22;25713;-35.352;149.036;2022-08-21T07:34:53;12.00;80.60
40023;DHT22;25713;-35.352;149.036;2022-08-21T07:37:22;12.00;79.60
40023;DHT22;25713;-35.352;149.036;2022-08-21T07:39:54;11.90;79.10
40023;DHT22;25713;-35.352;149.036;2022-08-21T07:42:24;11.90;76.80
40023;DHT22;25713;-35.352;149.036;2022-08-21T07:44:56;11.90;80.50
40023;DHT22;25713;-35.352;149.036;2022-08-21T07:47:26;11.90;79.20
40023;DHT22;25713;-35.352;149.036;2022-08-21T07:49:56;11.80;78.10
40023;DHT22;25713;-35.352;149.036;2022-08-21T07:52:26;11.80;79.50
40023;DHT22;25713;-35.352;149.036;2022-08-21T07:54:58;11.90;80.60
40023;DHT22;25713;-35.352;149.036;2022-08-21T07:57:28;11.90;79.10
40023;DHT22;25713;-35.352;149.036;2022-08-21T07:59:58;11.90;79.20
40023;DHT22;25713;-35.352;149.036;2022-08-21T08:02:29;11.90;80.00
40023;DHT22;25713;-35.352;149.036;2022-08-21T08:05:00;11.90;78.10
40023;DHT22;25713;-35.352;149.036;2022-08-21T08:07:31;11.90;79.30
40023;DHT22;25713;-35.352;149.036;2022-08-21T08:10:05;11.90;78.20
40023;DHT22;25713;-35.352;149.036;2022-08-21T08:12:37;11.90;79.70
40023;DHT22;25713;-35.352;149.036;2022-08-21T08:15:09;11.90;79.20
40023;DHT22;25713;-35.352;149.036;2022-08-21T08:17:39;11.90;80.70
40023;DHT22;25713;-35.352;149.036;2022-08-21T08:20:10;11.80;78.90
40023;DHT22;25713;-35.352;149.036;2022-08-21T08:22:41;11.80;78.70
40023;DHT22;25713;-35.352;149.036;2022-08-21T08:25:14;11.80;80.30
40023;DHT22;25713;-35.352;149.036;2022-08-21T08:27:44;11.90;80.60
40023;DHT22;25713;-35.352;149.036;2022-08-21T08:30:16;11.90;80.20
40023;DHT22;25713;-35.352;149.036;2022-08-21T08:32:46;11.90;80.20
40023;DHT22;25713;-35.352;149.036;2022-08-21T08:35:17;11.90;79.90
40023;DHT22;25713;-35.352;149.036;2022-08-21T08:37:47;11.90;80.40
40023;DHT22;25713;-35.352;149.036;2022-08-21T08:40:25;11.80;79.30
40023;DHT22;25713;-35.352;149.036;2022-08-21T08:42:58;11.80;81.00
40023;DHT22;25713;-35.352;149.036;2022-08-21T08:45:32;11.90;81.00
40023;DHT22;25713;-35.352;149.036;2022-08-21T08:48:07;11.90;80.80
40023;DHT22;25713;-35.352;149.036;2022-08-21T08:50:41;11.90;80.70
40023;DHT22;25713;-35.352;149.036;2022-08-21T08:53:17;12.00;80.70
40023;DHT22;25713;-35.352;149.036;2022-08-21T08:55:52;12.00;80.80
40023;DHT22;25713;-35.352;149.036;2022-08-21T08:58:27;12.00;80.80
40023;DHT22;25713;-35.352;149.036;2022-08-21T09:00:59;12.00;80.30
40023;DHT22;25713;-35.352;149.036;2022-08-21T09:03:30;12.00;80.50
40023;DHT22;25713;-35.352;149.036;2022-08-21T09:06:03;12.00;80.50
40023;DHT22;25713;-35.352;149.036;2022-08-21T09:08:46;12.00;80.80
40023;DHT22;25713;-35.352;149.036;2022-08-21T09:11:28;12.00;80.90
40023;DHT22;25713;-35.352;149.036;2022-08-21T09:14:08;12.00;80.70
40023;DHT22;25713;-35.352;149.036;2022-08-21T09:16:49;12.00;80.70
40023;DHT22;25713;-35.352;149.036;2022-08-21T09:19:35;12.00;80.60
40023;DHT22;25713;-35.352;149.036;2022-08-21T09:22:17;12.00;80.50
40023;DHT22;25713;-35.352;149.036;2022-08-21T09:24:55;12.00;80.50
40023;DHT22;25713;-35.352;149.036;2022-08-21T09:27:33;12.00;80.30
40023;DHT22;25713;-35.352;149.036;2022-08-21T09:30:05;12.00;80.50
40023;DHT22;25713;-35.352;149.036;2022-08-21T09:32:37;12.00;80.40
40023;DHT22;25713;-35.352;149.036;2022-08-21T09:35:10;12.00;80.70
40023;DHT22;25713;-35.352;149.036;2022-08-21T09:37:50;12.00;80.80
40023;DHT22;25713;-35.352;149.036;2022-08-21T09:40:31;12.00;81.00
40023;DHT22;25713;-35.352;149.036;2022-08-21T09:43:12;12.00;80.60
40023;DHT22;25713;-35.352;149.036;2022-08-21T09:45:46;12.00;80.70
40023;DHT22;25713;-35.352;149.036;2022-08-21T09:48:18;12.00;80.80
40023;DHT22;25713;-35.352;149.036;2022-08-21T09:50:49;11.90;80.30
40023;DHT22;25713;-35.352;149.036;2022-08-21T09:53:20;11.90;80.70
40023;DHT22;25713;-35.352;149.036;2022-08-21T09:55:53;11.90;80.20
40023;DHT22;25713;-35.352;149.036;2022-08-21T09:58:34;11.90;80.50
40023;DHT22;25713;-35.352;149.036;2022-08-21T10:01:05;11.90;80.30
40023;DHT22;25713;-35.352;149.036;2022-08-21T10:03:36;11.90;80.20
40023;DHT22;25713;-35.352;149.036;2022-08-21T10:06:07;11.90;80.60
40023;DHT22;25713;-35.352;149.036;2022-08-21T10:08:40;11.90;80.60
40023;DHT22;25713;-35.352;149.036;2022-08-21T10:11:09;11.90;80.50
40023;DHT22;25713;-35.352;149.036;2022-08-21T10:13:53;11.90;80.50
40023;DHT22;25713;-35.352;149.036;2022-08-21T10:16:30;11.90;80.70
40023;DHT22;25713;-35.352;149.036;2022-08-21T10:19:15;11.80;80.60
40023;DHT22;25713;-35.352;149.036;2022-08-21T10:21:58;11.80;80.90
40023;DHT22;25713;-35.352;149.036;2022-08-21T10:24:31;11.80;81.00
40023;DHT22;25713;-35.352;149.036;2022-08-21T10:27:15;11.80;80.90
40023;DHT22;25713;-35.352;149.036;2022-08-21T10:29:55;11.80;80.80
40023;DHT22;25713;-35.352;149.036;2022-08-21T10:32:36;11.70;80.50
40023;DHT22;25713;-35.352;149.036;2022-08-21T10:35:12;11.70;80.30
40023;DHT22;25713;-35.352;149.036;2022-08-21T10:37:52;11.70;80.60
40023;DHT22;25713;-35.352;149.036;2022-08-21T10:40:28;11.70;80.40
40023;DHT22;25713;-35.352;149.036;2022-08-21T10:43:08;11.70;80.10
40023;DHT22;25713;-35.352;149.036;2022-08-21T10:45:55;11.70;80.20
40023;DHT22;25713;-35.352;149.036;2022-08-21T10:48:29;11.70;81.30
40023;DHT22;25713;-35.352;149.036;2022-08-21T10:51:06;11.60;82.10
40023;DHT22;25713;-35.352;149.036;2022-08-21T10:53:47;11.60;80.70
40023;DHT22;25713;-35.352;149.036;2022-08-21T10:56:22;11.60;80.70
40023;DHT22;25713;-35.352;149.036;2022-08-21T10:59:09;11.60;80.70
40023;DHT22;25713;-35.352;149.036;2022-08-21T11:01:53;11.60;80.20
40023;DHT22;25713;-35.352;149.036;2022-08-21T11:04:27;11.60;82.50
40023;DHT22;25713;-35.352;149.036;2022-08-21T11:07:02;11.50;81.10
40023;DHT22;25713;-35.352;149.036;2022-08-21T11:09:33;11.40;83.00
40023;DHT22;25713;-35.352;149.036;2022-08-21T11:12:06;11.20;81.60
40023;DHT22;25713;-35.352;149.036;2022-08-21T11:14:48;11.00;83.70
40023;DHT22;25713;-35.352;149.036;2022-08-21T11:17:27;11.00;85.40
40023;DHT22;25713;-35.352;149.036;2022-08-21T11:20:03;10.80;83.10
40023;DHT22;25713;-35.352;149.036;2022-08-21T11:22:39;10.70;84.00
40023;DHT22;25713;-35.352;149.036;2022-08-21T11:25:16;10.60;84.10
40023;DHT22;25713;-35.352;149.036;2022-08-21T11:27:49;10.60;84.50
40023;DHT22;25713;-35.352;149.036;2022-08-21T11:30:19;10.60;86.70
40023;DHT22;25713;-35.352;149.036;2022-08-21T11:33:07;10.50;86.10
40023;DHT22;25713;-35.352;149.036;2022-08-21T11:35:46;10.50;86.20
40023;DHT22;25713;-35.352;149.036;2022-08-21T11:38:24;10.50;86.30
40023;DHT22;25713;-35.352;149.036;2022-08-21T11:41:08;10.50;84.80
40023;DHT22;25713;-35.352;149.036;2022-08-21T11:43:42;10.40;83.90
40023;DHT22;25713;-35.352;149.036;2022-08-21T11:46:20;10.50;87.40
40023;DHT22;25713;-35.352;149.036;2022-08-21T11:49:11;10.60;87.10
40023;DHT22;25713;-35.352;149.036;2022-08-21T11:51:45;10.70;85.60
40023;DHT22;25713;-35.352;149.036;2022-08-21T11:54:23;10.80;85.20
40023;DHT22;25713;-35.352;149.036;2022-08-21T11:56:59;10.90;85.00
40023;DHT22;25713;-35.352;149.036;2022-08-21T11:59:36;11.00;84.20
40023;DHT22;25713;-35.352;149.036;2022-08-21T12:02:12;11.00;83.30
40023;DHT22;25713;-35.352;149.036;2022-08-21T12:04:47;11.10;83.40
40023;DHT22;25713;-35.352;149.036;2022-08-21T12:07:29;11.10;82.40
40023;DHT22;25713;-35.352;149.036;2022-08-21T12:09:59;11.20;81.80
40023;DHT22;25713;-35.352;149.036;2022-08-21T12:12:30;11.20;81.20
40023;DHT22;25713;-35.352;149.036;2022-08-21T12:15:16;11.30;81.00
40023;DHT22;25713;-35.352;149.036;2022-08-21T12:18:01;11.20;80.80
40023;DHT22;25713;-35.352;149.036;2022-08-21T12:20:44;11.30;81.30
40023;DHT22;25713;-35.352;149.036;2022-08-21T12:23:24;11.30;80.80
40023;DHT22;25713;-35.352;149.036;2022-08-21T12:26:18;11.30;80.40
40023;DHT22;25713;-35.352;149.036;2022-08-21T12:28:49;11.30;80.50
40023;DHT22;25713;-35.352;149.036;2022-08-21T12:31:24;11.30;80.30
40023;DHT22;25713;-35.352;149.036;2022-08-21T12:33:58;11.30;79.90
40023;DHT22;25713;-35.352;149.036;2022-08-21T12:36:40;11.30;80.50
40023;DHT22;25713;-35.352;149.036;2022-08-21T12:39:15;11.30;80.30
40023;DHT22;25713;-35.352;149.036;2022-08-21T12:41:49;11.30;79.70
40023;DHT22;25713;-35.352;149.036;2022-08-21T12:44:22;11.30;79.70
40023;DHT22;25713;-35.352;149.036;2022-08-21T12:46:58;11.30;79.40
40023;DHT22;25713;-35.352;149.036;2022-08-21T12:49:33;11.20;79.10
40023;DHT22;25713;-35.352;149.036;2022-08-21T12:52:10;11.20;79.20
40023;DHT22;25713;-35.352;149.036;2022-08-21T12:54:43;11.20;80.90
40023;DHT22;25713;-35.352;149.036;2022-08-21T12:57:21;11.20;79.10
40023;DHT22;25713;-35.352;149.036;2022-08-21T12:59:56;11.20;80.40
40023;DHT22;25713;-35.352;149.036;2022-08-21T13:02:28;11.20;81.20
40023;DHT22;25713;-35.352;149.036;2022-08-21T13:05:01;11.20;81.00
40023;DHT22;25713;-35.352;149.036;2022-08-21T13:07:36;11.20;82.30
40023;DHT22;25713;-35.352;149.036;2022-08-21T13:10:14;11.20;82.50
40023;DHT22;25713;-35.352;149.036;2022-08-21T13:12:46;11.20;83.00
40023;DHT22;25713;-35.352;149.036;2022-08-21T13:15:21;11.20;82.70
40023;DHT22;25713;-35.352;149.036;2022-08-21T13:17:52;11.20;82.60
40023;DHT22;25713;-35.352;149.036;2022-08-21T13:20:24;11.20;80.50
40023;DHT22;25713;-35.352;149.036;2022-08-21T13:22:56;11.20;82.30
40023;DHT22;25713;-35.352;149.036;2022-08-21T13:25:28;11.20;84.50
40023;DHT22;25713;-35.352;149.036;2022-08-21T13:28:00;11.20;83.70
40023;DHT22;25713;-35.352;149.036;2022-08-21T13:30:31;11.20;83.70
40023;DHT22;25713;-35.352;149.036;2022-08-21T13:33:02;11.20;83.60
40023;DHT22;25713;-35.352;149.036;2022-08-21T13:35:44;11.10;81.60
40023;DHT22;25713;-35.352;149.036;2022-08-21T13:38:17;11.10;83.30
40023;DHT22;25713;-35.352;149.036;2022-08-21T13:40:50;11.10;84.50
40023;DHT22;25713;-35.352;149.036;2022-08-21T13:43:24;11.10;85.00
40023;DHT22;25713;-35.352;149.036;2022-08-21T13:45:55;11.00;82.30
40023;DHT22;25713;-35.352;149.036;2022-08-21T13:48:27;10.80;88.00
40023;DHT22;25713;-35.352;149.036;2022-08-21T13:50:58;10.70;88.20
40023;DHT22;25713;-35.352;149.036;2022-08-21T13:53:33;10.70;85.90
40023;DHT22;25713;-35.352;149.036;2022-08-21T13:56:05;10.60;88.70
40023;DHT22;25713;-35.352;149.036;2022-08-21T13:58:47;10.60;86.40
40023;DHT22;25713;-35.352;149.036;2022-08-21T14:01:23;10.60;87.80
40023;DHT22;25713;-35.352;149.036;2022-08-21T14:03:57;10.60;86.00
40023;DHT22;25713;-35.352;149.036;2022-08-21T14:06:32;10.70;88.90
40023;DHT22;25713;-35.352;149.036;2022-08-21T14:09:10;10.70;85.20
40023;DHT22;25713;-35.352;149.036;2022-08-21T14:11:41;10.70;85.00
40023;DHT22;25713;-35.352;149.036;2022-08-21T14:14:19;10.80;84.90
40023;DHT22;25713;-35.352;149.036;2022-08-21T14:16:55;10.80;84.40
40023;DHT22;25713;-35.352;149.036;2022-08-21T14:19:26;10.80;85.40
40023;DHT22;25713;-35.352;149.036;2022-08-21T14:21:57;10.80;84.40
40023;DHT22;25713;-35.352;149.036;2022-08-21T14:24:30;10.80;84.70
40023;DHT22;25713;-35.352;149.036;2022-08-21T14:27:05;10.80;85.70
40023;DHT22;25713;-35.352;149.036;2022-08-21T14:29:39;10.80;83.40
40023;DHT22;25713;-35.352;149.036;2022-08-21T14:32:15;10.90;82.80
40023;DHT22;25713;-35.352;149.036;2022-08-21T14:34:46;10.90;83.30
40023;DHT22;25713;-35.352;149.036;2022-08-21T14:37:15;10.90;83.70
40023;DHT22;25713;-35.352;149.036;2022-08-21T14:39:47;10.90;83.80
40023;DHT22;25713;-35.352;149.036;2022-08-21T14:42:17;10.90;84.10
40023;DHT22;25713;-35.352;149.036;2022-08-21T14:44:51;10.90;84.20
40023;DHT22;25713;-35.352;149.036;2022-08-21T14:47:21;10.90;84.90
40023;DHT22;25713;-35.352;149.036;2022-08-21T14:49:51;10.90;83.80
40023;DHT22;25713;-35.352;149.036;2022-08-21T14:52:21;10.80;83.50
40023;DHT22;25713;-35.352;149.036;2022-08-21T15:55:17;10.40;86.50
40023;DHT22;25713;-35.352;149.036;2022-08-21T15:57:48;10.50;87.50
40023;DHT22;25713;-35.352;149.036;2022-08-21T16:00:21;10.40;86.30
40023;DHT22;25713;-35.352;149.036;2022-08-21T16:02:53;10.40;85.10
40023;DHT22;25713;-35.352;149.036;2022-08-21T16:05:25;10.50;86.40
40023;DHT22;25713;-35.352;149.036;2022-08-21T16:07:55;10.40;86.30
40023;DHT22;25713;-35.352;149.036;2022-08-21T16:10:28;10.50;87.40
40023;DHT22;25713;-35.352;149.036;2022-08-21T16:13:01;10.50;85.40
40023;DHT22;25713;-35.352;149.036;2022-08-21T16:15:31;10.50;85.80
40023;DHT22;25713;-35.352;149.036;2022-08-21T16:18:01;10.50;85.40
40023;DHT22;25713;-35.352;149.036;2022-08-21T16:20:31;10.60;86.40
40023;DHT22;25713;-35.352;149.036;2022-08-21T16:23:00;10.60;86.90